createdAt,value
2023-01-31T00:01:49.902Z,82.59
2023-01-31T00:04:20.234Z,82.89
2023-01-31T00:06:51.686Z,83.15
2023-01-31T00:09:22.540Z,83.59
2023-01-31T00:11:53.483Z,83.36
2023-01-31T00:14:25.085Z,83.65
2023-01-31T00:16:58.114Z,83.57
2023-01-31T00:19:28.821Z,83.52
2023-01-31T00:21:59.343Z,83.46
2023-01-31T00:24:29.556Z,83.57
2023-01-31T00:26:59.834Z,83.49
2023-01-31T00:29:30.289Z,83.36
2023-01-31T00:32:04.215Z,82.92
2023-01-31T00:34:34.778Z,82.28
2023-01-31T00:37:05.019Z,81.77
2023-01-31T00:39:36.378Z,81.72
2023-01-31T00:42:06.587Z,81.21
2023-01-31T00:44:37.201Z,81.38
2023-01-31T00:47:10.512Z,81.08
2023-01-31T00:49:40.658Z,81.06
2023-01-31T00:52:10.996Z,81.04
2023-01-31T00:54:43.009Z,80.93
2023-01-31T00:57:13.415Z,81.11
2023-01-31T00:59:43.742Z,81.01
2023-01-31T01:02:16.618Z,81.40
2023-01-31T01:04:47.331Z,81.86
2023-01-31T01:07:17.587Z,82.07
2023-01-31T01:09:47.841Z,82.18
2023-01-31T01:12:17.990Z,82.54
2023-01-31T01:14:48.770Z,82.50
2023-01-31T01:17:21.871Z,83.07
2023-01-31T01:19:52.573Z,83.62
2023-01-31T01:22:22.801Z,83.71
2023-01-31T01:24:52.861Z,84.07
2023-01-31T01:27:23.195Z,84.48
2023-01-31T01:29:53.441Z,84.36
2023-01-31T01:32:26.669Z,84.32
2023-01-31T01:34:56.844Z,84.24
2023-01-31T01:37:28.309Z,84.19
2023-01-31T01:40:00.215Z,84.37
2023-01-31T01:42:30.876Z,84.84
2023-01-31T01:45:04.097Z,84.81
2023-01-31T01:47:40.383Z,84.79
2023-01-31T01:50:16.367Z,85.20
2023-01-31T01:52:48.836Z,84.78
2023-01-31T01:55:22.738Z,84.88
2023-01-31T01:57:54.616Z,84.93
2023-01-31T02:00:26.469Z,85.05
2023-01-31T02:03:01.269Z,85.00
2023-01-31T02:05:33.913Z,85.18
2023-01-31T02:08:05.264Z,85.25
2023-01-31T02:10:37.319Z,85.55
2023-01-31T02:13:10.638Z,85.42
2023-01-31T02:15:40.875Z,85.23
2023-01-31T02:18:13.937Z,84.92
2023-01-31T02:21:03.736Z,84.94
2023-01-31T02:23:46.605Z,84.62
2023-01-31T02:26:30.479Z,84.58
2023-01-31T02:29:16.158Z,84.68
2023-01-31T02:31:57.252Z,84.96
2023-01-31T02:34:35.231Z,85.27
2023-01-31T02:37:14.279Z,85.32
2023-01-31T02:39:46.429Z,85.27
2023-01-31T02:42:19.035Z,84.92
2023-01-31T02:44:59.653Z,84.96
2023-01-31T02:47:36.920Z,84.81
2023-01-31T02:50:15.284Z,84.74
2023-01-31T02:52:50.002Z,84.94
2023-01-31T02:55:35.073Z,84.66
2023-01-31T02:58:06.893Z,84.67
2023-01-31T03:00:38.751Z,84.55
2023-01-31T03:03:10.908Z,84.45
2023-01-31T03:05:44.609Z,84.60
2023-01-31T03:08:23.172Z,84.88
2023-01-31T03:10:59.200Z,85.08
2023-01-31T03:13:36.700Z,84.94
2023-01-31T03:16:26.567Z,84.97
2023-01-31T03:19:02.109Z,85.02
2023-01-31T03:21:37.372Z,84.71
2023-01-31T03:24:09.786Z,84.58
2023-01-31T03:26:39.973Z,84.54
2023-01-31T03:29:11.604Z,84.49
2023-01-31T03:31:44.321Z,84.39
2023-01-31T03:34:16.934Z,84.47
2023-01-31T03:36:54.356Z,84.17
2023-01-31T03:39:55.204Z,83.81
2023-01-31T03:42:28.185Z,83.85
2023-01-31T03:45:03.155Z,84.17
2023-01-31T03:47:36.066Z,84.51
2023-01-31T03:50:09.289Z,84.37
2023-01-31T03:52:46.494Z,84.63
2023-01-31T03:55:19.535Z,84.51
2023-01-31T03:57:53.710Z,84.77
2023-01-31T04:00:25.640Z,84.88
2023-01-31T04:03:03.931Z,84.73
2023-01-31T04:05:35.476Z,85.03
2023-01-31T04:08:10.087Z,84.95
2023-01-31T04:10:40.563Z,84.86
2023-01-31T04:13:10.721Z,84.64
2023-01-31T04:15:41.155Z,84.66
2023-01-31T04:18:12.041Z,85.03
2023-01-31T04:20:42.116Z,84.87
2023-01-31T04:23:14.804Z,84.91
2023-01-31T04:25:44.789Z,84.68
2023-01-31T04:28:15.326Z,84.87
2023-01-31T04:30:45.526Z,84.83
2023-01-31T04:33:15.653Z,84.64
2023-01-31T04:35:47.946Z,85.00
2023-01-31T04:38:20.766Z,84.89
2023-01-31T04:40:50.899Z,84.89
2023-01-31T04:43:21.193Z,84.74
2023-01-31T04:45:51.562Z,84.36
2023-01-31T04:48:21.627Z,83.92
2023-01-31T04:50:51.829Z,83.78
2023-01-31T04:53:24.662Z,83.91
2023-01-31T04:55:56.393Z,83.80
2023-01-31T04:58:26.619Z,83.94
2023-01-31T05:00:56.808Z,83.48
2023-01-31T05:03:27.069Z,83.38
2023-01-31T05:05:57.075Z,83.19
2023-01-31T05:08:29.773Z,83.16
2023-01-31T05:11:02.926Z,83.00
2023-01-31T05:13:34.764Z,83.32
2023-01-31T05:16:04.973Z,83.14
2023-01-31T05:18:35.264Z,83.21
2023-01-31T05:21:05.605Z,82.82
2023-01-31T05:23:39.041Z,82.70
2023-01-31T05:26:09.208Z,82.11
2023-01-31T05:28:39.404Z,82.15
2023-01-31T05:31:11.553Z,81.90
2023-01-31T05:33:41.651Z,82.09
2023-01-31T05:36:12.188Z,82.18
2023-01-31T05:38:45.363Z,81.61
2023-01-31T05:41:15.403Z,81.73
2023-01-31T05:43:45.431Z,81.89
2023-01-31T05:46:15.648Z,81.71
2023-01-31T05:48:45.676Z,81.65
2023-01-31T05:51:15.963Z,81.68
2023-01-31T05:53:48.802Z,81.49
2023-01-31T05:56:19.547Z,81.68
2023-01-31T05:58:50.680Z,81.56
2023-01-31T06:01:22.891Z,81.52
2023-01-31T06:03:53.229Z,81.33
2023-01-31T06:06:35.983Z,81.09
2023-01-31T06:09:09.256Z,81.29
2023-01-31T06:11:39.468Z,81.09
2023-01-31T06:14:09.529Z,81.31
2023-01-31T06:16:39.706Z,81.27
2023-01-31T06:19:09.867Z,80.99
2023-01-31T06:21:40.028Z,80.78
2023-01-31T06:24:12.917Z,80.97
2023-01-31T06:26:43.287Z,80.69
2023-01-31T06:29:13.312Z,80.58
2023-01-31T06:31:46.175Z,80.60
2023-01-31T06:34:16.313Z,80.51
2023-01-31T06:36:46.421Z,80.52
2023-01-31T06:39:19.135Z,80.46
2023-01-31T06:41:49.658Z,80.59
2023-01-31T06:44:19.793Z,80.46
2023-01-31T06:46:49.887Z,80.23
2023-01-31T06:49:20.022Z,80.10
2023-01-31T06:51:50.493Z,79.99
2023-01-31T06:54:23.134Z,80.13
2023-01-31T06:56:53.817Z,80.20
2023-01-31T06:59:23.888Z,79.94
2023-01-31T07:01:54.661Z,80.13
2023-01-31T07:04:24.969Z,80.11
2023-01-31T07:06:55.168Z,80.07
2023-01-31T07:09:27.902Z,80.18
2023-01-31T07:11:57.983Z,80.15
2023-01-31T07:14:28.395Z,80.22
2023-01-31T07:16:58.474Z,80.15
2023-01-31T07:19:28.691Z,80.24
2023-01-31T07:21:58.743Z,80.08
2023-01-31T07:24:31.478Z,80.21
2023-01-31T07:27:01.697Z,80.12
2023-01-31T07:29:32.461Z,80.30
2023-01-31T07:32:02.702Z,80.25
2023-01-31T07:34:33.407Z,80.12
2023-01-31T07:37:04.014Z,80.29
2023-01-31T07:39:36.798Z,80.40
2023-01-31T07:42:07.019Z,80.35
2023-01-31T07:44:37.346Z,80.51
2023-01-31T07:47:07.625Z,80.27
2023-01-31T07:49:37.805Z,80.66
2023-01-31T07:52:08.574Z,80.32
2023-01-31T07:54:42.080Z,80.33
2023-01-31T07:57:13.266Z,80.32
2023-01-31T07:59:43.344Z,79.80
2023-01-31T08:02:27.435Z,79.85
2023-01-31T08:04:57.663Z,79.87
2023-01-31T08:07:28.376Z,79.80
2023-01-31T08:10:00.964Z,79.49
2023-01-31T08:12:32.043Z,79.59
2023-01-31T08:15:02.124Z,79.03
2023-01-31T08:17:32.827Z,78.89
2023-01-31T08:20:03.621Z,79.15
2023-01-31T08:22:33.680Z,79.14
2023-01-31T08:25:06.930Z,78.54
2023-01-31T08:27:37.079Z,78.43
2023-01-31T08:30:07.803Z,78.22
2023-01-31T08:32:37.967Z,78.42
2023-01-31T08:35:08.636Z,77.98
2023-01-31T08:37:38.880Z,78.10
2023-01-31T08:40:12.661Z,77.87
2023-01-31T08:42:43.279Z,78.03
2023-01-31T08:45:13.880Z,77.74
2023-01-31T08:47:44.193Z,77.67
2023-01-31T08:50:26.941Z,77.68
2023-01-31T08:52:58.314Z,77.04
2023-01-31T08:55:31.301Z,76.66
2023-01-31T08:58:02.304Z,76.83
2023-01-31T09:00:32.560Z,77.05
2023-01-31T09:03:03.595Z,76.85
2023-01-31T09:05:35.024Z,77.10
2023-01-31T09:08:05.145Z,76.90
2023-01-31T09:10:37.878Z,76.63
2023-01-31T09:13:08.177Z,75.86
2023-01-31T09:15:38.218Z,76.18
2023-01-31T09:18:08.336Z,76.50
2023-01-31T09:20:38.548Z,75.92
2023-01-31T09:23:08.572Z,76.38
2023-01-31T09:25:46.871Z,75.74
2023-01-31T09:28:17.612Z,76.02
2023-01-31T09:30:47.802Z,76.38
2023-01-31T09:33:18.112Z,76.85
2023-01-31T09:35:57.845Z,77.29
2023-01-31T09:38:28.564Z,78.49
2023-01-31T09:41:03.464Z,79.04
2023-01-31T09:43:36.711Z,79.90
2023-01-31T09:46:09.124Z,80.74
2023-01-31T09:48:42.544Z,81.37
2023-01-31T09:51:15.052Z,82.11
2023-01-31T09:53:45.626Z,82.69
2023-01-31T09:56:23.666Z,83.03
2023-01-31T09:58:59.077Z,83.31
2023-01-31T10:01:31.824Z,83.41
2023-01-31T10:04:12.330Z,83.22
2023-01-31T10:06:46.447Z,83.26
2023-01-31T10:09:20.957Z,82.89
2023-01-31T10:11:55.305Z,82.92
2023-01-31T10:14:31.804Z,82.25
2023-01-31T10:17:06.894Z,81.89
2023-01-31T10:19:42.538Z,81.73
2023-01-31T10:22:15.328Z,81.86
2023-01-31T10:24:48.920Z,81.52
2023-01-31T10:27:24.610Z,81.43
2023-01-31T10:29:57.470Z,81.49
2023-01-31T10:32:31.527Z,81.39
2023-01-31T10:35:05.602Z,81.26
2023-01-31T10:37:40.275Z,81.20
2023-01-31T10:40:16.731Z,81.40
2023-01-31T10:42:52.806Z,81.43
2023-01-31T10:45:23.833Z,81.28
2023-01-31T10:47:56.778Z,81.35
2023-01-31T10:50:31.469Z,81.36
2023-01-31T10:53:11.839Z,81.34
2023-01-31T10:55:50.668Z,81.33
2023-01-31T10:58:25.212Z,81.19
2023-01-31T11:00:55.512Z,81.12
2023-01-31T11:03:25.822Z,81.14
2023-01-31T11:05:56.824Z,81.44
2023-01-31T11:08:36.777Z,81.52
2023-01-31T11:11:09.048Z,81.35
2023-01-31T11:13:42.783Z,81.00
2023-01-31T11:16:14.596Z,81.13
2023-01-31T11:18:47.681Z,80.86
2023-01-31T11:21:23.145Z,81.07
2023-01-31T11:23:54.075Z,80.66
2023-01-31T11:26:28.260Z,80.69
2023-01-31T11:29:01.584Z,80.47
2023-01-31T11:31:33.742Z,80.68
2023-01-31T11:34:04.507Z,80.59
2023-01-31T11:36:35.742Z,80.55
2023-01-31T11:39:21.047Z,80.84
2023-01-31T11:41:51.267Z,80.80
2023-01-31T11:44:24.636Z,80.59
2023-01-31T11:46:56.164Z,80.66
2023-01-31T11:49:30.354Z,80.84
2023-01-31T11:52:01.517Z,80.81
2023-01-31T11:54:33.790Z,80.68
2023-01-31T11:57:04.598Z,80.79
2023-01-31T11:59:37.851Z,81.03
2023-01-31T12:02:08.389Z,81.03
2023-01-31T12:04:44.184Z,80.96
2023-01-31T12:07:24.326Z,81.12
2023-01-31T12:09:54.648Z,80.97
2023-01-31T12:12:26.486Z,81.05
2023-01-31T12:15:02.594Z,81.16
2023-01-31T12:17:34.268Z,80.90
2023-01-31T12:20:27.050Z,80.86
2023-01-31T12:23:03.256Z,80.73
2023-01-31T12:25:44.168Z,80.62
2023-01-31T12:28:22.604Z,80.42
2023-01-31T12:31:04.249Z,80.53
2023-01-31T12:33:48.111Z,81.02
2023-01-31T12:36:25.020Z,81.08
2023-01-31T12:39:02.091Z,81.39
2023-01-31T12:41:35.130Z,81.49
2023-01-31T12:44:32.520Z,81.42
2023-01-31T12:47:13.068Z,81.46
2023-01-31T12:50:00.932Z,82.15
2023-01-31T12:52:39.864Z,82.17
2023-01-31T12:55:17.211Z,82.70
2023-01-31T12:57:50.023Z,83.06
2023-01-31T13:00:27.800Z,83.39
2023-01-31T13:03:07.415Z,84.25
2023-01-31T13:05:42.357Z,84.63
2023-01-31T13:08:18.720Z,85.09
2023-01-31T13:10:51.100Z,85.75
2023-01-31T13:13:25.297Z,86.15
2023-01-31T13:15:58.040Z,86.43
2023-01-31T13:18:31.863Z,86.86
2023-01-31T13:21:04.038Z,87.07
2023-01-31T13:23:36.178Z,87.42
2023-01-31T13:26:10.500Z,87.92
2023-01-31T13:28:44.712Z,88.25
2023-01-31T13:31:18.861Z,89.01
2023-01-31T13:33:53.916Z,88.90
2023-01-31T13:36:30.367Z,89.47
2023-01-31T13:39:03.820Z,89.74
2023-01-31T13:41:34.640Z,89.69
2023-01-31T13:44:05.094Z,89.96
2023-01-31T13:46:36.868Z,90.17
2023-01-31T13:49:12.557Z,90.12
2023-01-31T13:51:46.043Z,90.08
2023-01-31T13:54:20.392Z,90.14
2023-01-31T13:56:53.156Z,90.09
2023-01-31T13:59:24.689Z,89.73
2023-01-31T14:01:55.602Z,89.89
2023-01-31T14:04:30.559Z,89.78
2023-01-31T14:07:16.482Z,89.73
2023-01-31T14:09:47.675Z,89.71
2023-01-31T14:12:34.842Z,89.38
2023-01-31T14:15:13.119Z,89.37
2023-01-31T14:17:58.121Z,89.01
2023-01-31T14:20:31.412Z,88.94
2023-01-31T14:23:25.509Z,88.74
2023-01-31T14:25:59.102Z,88.76
2023-01-31T14:28:29.795Z,88.46
2023-01-31T14:30:59.809Z,88.18
2023-01-31T14:33:31.181Z,87.92
2023-01-31T14:36:17.050Z,87.39
2023-01-31T14:38:53.593Z,87.20
2023-01-31T14:41:32.003Z,87.11
2023-01-31T14:44:07.417Z,86.77
2023-01-31T14:46:47.528Z,86.43
2023-01-31T14:49:35.021Z,86.37
2023-01-31T14:52:18.437Z,86.26
2023-01-31T14:55:01.687Z,86.40
2023-01-31T14:57:33.855Z,86.10
2023-01-31T15:00:05.352Z,86.12
2023-01-31T15:02:54.292Z,86.36
2023-01-31T15:05:27.881Z,85.92
2023-01-31T15:08:05.643Z,85.99
2023-01-31T15:10:50.636Z,86.10
2023-01-31T15:13:37.503Z,85.77
2023-01-31T15:16:09.596Z,86.05
2023-01-31T15:18:39.913Z,86.19
2023-01-31T15:21:10.340Z,86.33
2023-01-31T15:23:44.843Z,86.38
2023-01-31T15:26:17.493Z,86.14
2023-01-31T15:28:47.861Z,86.73
2023-01-31T15:31:20.458Z,86.38
2023-01-31T15:33:53.163Z,86.37
2023-01-31T15:36:28.134Z,86.24
2023-01-31T15:39:03.956Z,86.51
2023-01-31T15:41:39.143Z,86.55
2023-01-31T15:44:16.287Z,86.33
2023-01-31T15:46:47.072Z,86.37
2023-01-31T15:49:38.572Z,86.14
2023-01-31T15:52:16.893Z,86.07
2023-01-31T15:55:00.414Z,86.19
2023-01-31T15:57:32.204Z,85.96
2023-01-31T16:00:02.498Z,85.71
2023-01-31T16:02:38.028Z,85.84
2023-01-31T16:05:08.763Z,85.56
2023-01-31T16:07:39.026Z,85.87
2023-01-31T16:10:15.786Z,85.79
2023-01-31T16:12:47.321Z,85.77
2023-01-31T16:15:20.767Z,86.09
2023-01-31T16:17:52.225Z,86.20
2023-01-31T16:20:37.433Z,86.93
2023-01-31T16:23:08.380Z,87.29
2023-01-31T16:25:41.123Z,87.50
2023-01-31T16:28:15.178Z,87.53
2023-01-31T16:30:45.820Z,87.74
2023-01-31T16:33:19.149Z,88.31
2023-01-31T16:35:49.232Z,88.30
2023-01-31T16:38:21.528Z,88.34
2023-01-31T16:40:56.192Z,87.81
2023-01-31T16:43:27.648Z,87.13
2023-01-31T16:45:58.737Z,87.12
2023-01-31T16:48:31.863Z,86.54
2023-01-31T16:51:02.999Z,86.64
2023-01-31T16:53:34.649Z,86.74
2023-01-31T16:56:19.804Z,86.23
2023-01-31T16:58:54.016Z,86.75
2023-01-31T17:01:28.588Z,87.44
2023-01-31T17:04:04.157Z,87.81
2023-01-31T17:06:35.353Z,87.83
2023-01-31T17:09:05.869Z,87.88
2023-01-31T17:11:43.174Z,87.87
2023-01-31T17:14:14.091Z,87.59
2023-01-31T17:16:47.153Z,87.40
2023-01-31T17:19:17.266Z,86.75
2023-01-31T17:21:49.731Z,86.05
2023-01-31T17:24:22.830Z,85.89
2023-01-31T17:26:54.101Z,85.63
2023-01-31T17:29:26.106Z,85.65
2023-01-31T17:31:59.072Z,85.76
2023-01-31T17:34:29.187Z,85.74
2023-01-31T17:36:59.295Z,85.56
2023-01-31T17:39:29.413Z,85.39
2023-01-31T17:41:59.623Z,85.83
2023-01-31T17:44:29.838Z,86.17
2023-01-31T17:47:02.496Z,86.35
2023-01-31T17:49:35.044Z,86.20
2023-01-31T17:52:05.368Z,86.38
2023-01-31T17:54:35.466Z,86.86
2023-01-31T17:57:05.651Z,87.05
2023-01-31T17:59:35.815Z,87.18
2023-01-31T18:02:08.752Z,86.86
2023-01-31T18:04:38.913Z,86.83
2023-01-31T18:07:09.234Z,86.46
2023-01-31T18:09:39.677Z,85.89
2023-01-31T18:12:10.063Z,85.34
2023-01-31T18:14:40.111Z,85.14
2023-01-31T18:17:12.778Z,85.19
2023-01-31T18:19:43.178Z,84.84
2023-01-31T18:22:14.383Z,84.69
2023-01-31T18:24:44.860Z,84.62
2023-01-31T18:27:15.384Z,84.68
2023-01-31T18:29:45.800Z,84.29
2023-01-31T18:32:20.235Z,83.86
2023-01-31T18:34:50.526Z,83.45
2023-01-31T18:37:22.209Z,83.74
2023-01-31T18:39:52.733Z,83.43
2023-01-31T18:42:23.147Z,83.18
2023-01-31T18:44:53.169Z,83.14
2023-01-31T18:47:25.952Z,82.81
2023-01-31T18:49:56.441Z,82.39
2023-01-31T18:52:26.744Z,82.65
2023-01-31T18:54:57.034Z,82.35
2023-01-31T18:57:27.153Z,82.17
2023-01-31T18:59:57.390Z,82.05
2023-01-31T19:02:30.149Z,81.57
2023-01-31T19:05:00.493Z,81.74
2023-01-31T19:07:30.808Z,81.38
2023-01-31T19:10:00.877Z,81.17
2023-01-31T19:12:31.049Z,81.16
2023-01-31T19:15:01.277Z,80.73
2023-01-31T19:17:34.067Z,80.29
2023-01-31T19:20:04.278Z,79.62
2023-01-31T19:22:34.386Z,78.77
2023-01-31T19:25:05.549Z,78.30
2023-01-31T19:27:35.538Z,78.04
2023-01-31T19:30:06.059Z,77.87
2023-01-31T19:32:38.953Z,77.95
2023-01-31T19:35:09.885Z,78.04
2023-01-31T19:37:39.944Z,77.93
2023-01-31T19:40:10.741Z,77.96
2023-01-31T19:42:42.406Z,77.57
2023-01-31T19:45:19.838Z,77.82
2023-01-31T19:47:57.288Z,78.11
2023-01-31T19:50:28.450Z,77.47
2023-01-31T19:52:58.569Z,77.67
2023-01-31T19:55:28.632Z,77.47
2023-01-31T19:57:58.730Z,77.66
2023-01-31T20:00:28.953Z,77.44
2023-01-31T20:03:02.043Z,77.65
2023-01-31T20:05:32.310Z,77.85
2023-01-31T20:08:02.566Z,78.00
2023-01-31T20:10:32.778Z,77.91
2023-01-31T20:13:02.936Z,78.03
2023-01-31T20:15:33.547Z,78.08
2023-01-31T20:18:06.268Z,78.48
2023-01-31T20:20:36.449Z,78.42
2023-01-31T20:23:08.355Z,78.56
2023-01-31T20:25:38.602Z,78.40
2023-01-31T20:28:08.783Z,78.49
2023-01-31T20:30:39.094Z,78.63
2023-01-31T20:33:11.993Z,78.85
2023-01-31T20:35:42.556Z,78.71
2023-01-31T20:38:13.183Z,78.60
2023-01-31T20:40:45.218Z,78.45
2023-01-31T20:43:15.323Z,78.30
2023-01-31T20:45:45.876Z,77.53
2023-01-31T20:48:19.213Z,77.61
2023-01-31T20:50:56.584Z,77.41
2023-01-31T20:53:28.720Z,77.26
2023-01-31T20:56:00.960Z,77.03
2023-01-31T20:58:32.627Z,76.82
2023-01-31T21:01:05.768Z,76.72
2023-01-31T21:03:39.103Z,76.74
2023-01-31T21:06:10.036Z,76.22
2023-01-31T21:08:40.540Z,76.54
2023-01-31T21:11:11.571Z,76.33
2023-01-31T21:13:43.913Z,76.58
2023-01-31T21:16:15.775Z,76.71
2023-01-31T21:18:49.485Z,76.44
2023-01-31T21:21:23.496Z,76.72
2023-01-31T21:23:54.857Z,77.14
2023-01-31T21:26:26.844Z,77.18
2023-01-31T21:28:57.161Z,77.16
2023-01-31T21:31:27.293Z,77.21
2023-01-31T21:34:05.470Z,77.15
2023-01-31T21:36:36.932Z,77.13
2023-01-31T21:39:07.187Z,77.14
2023-01-31T21:41:49.674Z,76.94
2023-01-31T21:44:20.001Z,77.03
2023-01-31T21:46:50.272Z,77.28
2023-01-31T21:49:23.167Z,77.14
2023-01-31T21:51:53.205Z,77.47
2023-01-31T21:54:23.412Z,77.55
2023-01-31T21:56:53.736Z,77.69
2023-01-31T21:59:24.239Z,77.67
2023-01-31T22:01:54.704Z,77.96
2023-01-31T22:04:27.553Z,78.05
2023-01-31T22:06:58.272Z,77.83
2023-01-31T22:09:28.533Z,78.13
2023-01-31T22:11:58.541Z,78.21
2023-01-31T22:14:28.773Z,78.23
2023-01-31T22:16:59.071Z,78.30
2023-01-31T22:19:31.977Z,78.34
2023-01-31T22:22:02.236Z,78.36
2023-01-31T22:24:32.717Z,78.35
2023-01-31T22:27:02.879Z,78.41
2023-01-31T22:29:33.081Z,78.43
2023-01-31T22:32:03.243Z,78.37
2023-01-31T22:34:36.122Z,78.22
2023-01-31T22:37:06.450Z,78.50
2023-01-31T22:39:36.781Z,78.19
2023-01-31T22:42:07.019Z,78.17
2023-01-31T22:44:37.278Z,78.04
2023-01-31T22:47:07.497Z,78.18
2023-01-31T22:49:40.291Z,78.06
2023-01-31T22:52:10.424Z,78.07
2023-01-31T22:54:40.887Z,77.97
2023-01-31T22:57:11.085Z,78.15
2023-01-31T22:59:41.238Z,77.81
2023-01-31T23:02:11.332Z,77.97
2023-01-31T23:04:44.339Z,78.11
2023-01-31T23:07:15.035Z,77.88
2023-01-31T23:09:45.260Z,78.13
2023-01-31T23:12:15.370Z,78.11
2023-01-31T23:14:46.042Z,77.85
2023-01-31T23:17:28.555Z,77.78
2023-01-31T23:20:01.473Z,77.92
2023-01-31T23:22:31.670Z,77.50
2023-01-31T23:25:02.370Z,77.70
2023-01-31T23:27:32.826Z,77.65
2023-01-31T23:30:02.993Z,77.58
2023-01-31T23:32:33.137Z,77.16
2023-01-31T23:35:06.393Z,76.89
2023-01-31T23:37:37.219Z,76.62
2023-01-31T23:40:07.652Z,76.64
2023-01-31T23:42:38.128Z,76.56
2023-01-31T23:45:09.529Z,76.27
2023-01-31T23:47:42.751Z,76.11
2023-01-31T23:50:16.012Z,76.13
2023-01-31T23:52:46.148Z,76.08
2023-01-31T23:55:18.344Z,76.02
2023-01-31T23:57:48.401Z,76.06
